Time;durP1;ratioP1;P1;durP2;ratioP2;P2;SDS_P1;SDS_P2;PMS_P1;PMS_P2;Temp;Humidity;BMP_temperature;BMP_pressure;BME280_temperature;BME280_humidity;BME280_pressure;Samples;Min_cycle;Max_cycle;Signal;HPM_P1;HPM_P2
2022/06/10 00:01:37;;;;;;;;;5.00;3.33;;;;;20.86;91.20;101854.88;5037978;28;68622;-67
2022/06/10 00:04:02;;;;;;;;;3.33;3.33;;;;;20.87;91.20;101843.22;5038093;28;64223;-67
2022/06/10 00:06:27;;;;;;;;;3.00;3.00;;;;;20.89;90.85;101845.91;5039406;28;45314;-67
2022/06/10 00:08:53;;;;;;;;;6.00;4.00;;;;;20.92;90.37;101853.88;5038930;28;54973;-67
2022/06/10 00:11:18;;;;;;;;;2.00;2.00;;;;;20.93;90.94;101843.16;5039057;28;46601;-68
2022/06/10 00:13:45;;;;;;;;;3.67;3.00;;;;;20.95;90.15;101844.91;5021177;28;45492;-67
2022/06/10 00:16:12;;;;;;;;;2.67;2.00;;;;;20.96;90.48;101839.50;5039274;28;45446;-67
2022/06/10 00:18:37;;;;;;;;;4.67;4.00;;;;;20.98;90.00;101836.78;5036683;28;45403;-68
2022/06/10 00:21:06;;;;;;;;;4.33;3.00;;;;;21.00;90.29;101843.03;5038279;28;45835;-67
2022/06/10 00:23:31;;;;;;;;;4.00;4.00;;;;;21.02;90.21;101843.91;5038731;28;45614;-68
2022/06/10 00:25:57;;;;;;;;;4.00;3.00;;;;;21.03;90.26;101842.97;5038320;28;62643;-67
2022/06/10 00:28:22;;;;;;;;;4.67;3.00;;;;;21.03;90.50;101841.16;5038630;28;45280;-67
2022/06/10 00:30:48;;;;;;;;;2.33;2.33;;;;;21.01;89.95;101836.75;5038615;28;50941;-67
2022/06/10 00:33:13;;;;;;;;;3.33;3.00;;;;;21.00;89.71;101841.25;5038714;28;45568;-67
2022/06/10 00:35:40;;;;;;;;;6.00;3.00;;;;;21.00;89.95;101841.25;5038813;28;45276;-68
2022/06/10 00:38:05;;;;;;;;;2.67;2.00;;;;;21.00;90.00;101841.25;5038777;28;45219;-67
2022/06/10 00:40:34;;;;;;;;;2.33;2.33;;;;;21.00;90.17;101838.56;5038709;28;45550;-67
2022/06/10 00:43:00;;;;;;;;;2.67;2.67;;;;;21.01;90.24;101836.75;5036598;28;45242;-67
2022/06/10 00:45:44;;;;;;;;;3.67;2.33;;;;;21.01;90.20;101836.75;5036641;28;59559;-67
2022/06/10 00:48:11;;;;;;;;;3.00;2.00;;;;;20.99;89.84;101834.09;5039213;28;45631;-67
2022/06/10 00:50:37;;;;;;;;;4.00;3.00;;;;;21.01;90.20;101834.97;5020272;28;46520;-68
2022/06/10 00:53:05;;;;;;;;;4.67;2.00;;;;;21.03;89.57;101824.19;5019471;28;45332;-67
2022/06/10 00:55:30;;;;;;;;;5.00;2.33;;;;;21.02;89.83;101834.03;5038709;28;45287;-67
2022/06/10 00:58:19;;;;;;;;;3.67;2.33;;;;;21.02;89.81;101831.34;5038108;28;59211;-68
2022/06/10 01:00:44;;;;;;;;;5.00;3.00;;;;;21.03;89.31;101825.06;5020200;28;47971;-68
2022/06/10 01:03:10;;;;;;;;;4.00;4.00;;;;;21.02;89.47;101822.41;5037922;28;45440;-67
2022/06/10 01:05:35;;;;;;;;;5.33;3.00;;;;;21.00;89.25;101827.81;5020410;28;45290;-67
2022/06/10 01:08:06;;;;;;;;;3.00;3.00;;;;;21.00;89.48;101821.56;5038180;28;52964;-67
2022/06/10 01:10:56;;;;;;;;;3.00;3.00;;;;;20.99;89.87;101819.78;5037808;28;47438;-67
2022/06/10 01:13:36;;;;;;;;;3.00;3.00;;;;;20.98;89.60;101823.38;5038541;28;45385;-67
2022/06/10 01:16:13;;;;;;;;;3.33;3.33;;;;;20.96;89.05;101823.41;5038590;28;45210;-68
2022/06/10 01:18:54;;;;;;;;;7.33;2.00;;;;;20.95;89.75;101826.13;5038500;28;45469;-67
2022/06/10 01:21:28;;;;;;;;;5.00;2.67;;;;;20.93;89.49;101827.03;5038364;28;47316;-67
2022/06/10 01:24:12;;;;;;;;;4.00;2.33;;;;;20.91;89.26;101825.28;5037490;28;45443;-67
2022/06/10 01:30:11;;;;;;;;;6.67;4.00;;;;;20.91;89.50;101817.22;5037698;28;45345;-67
2022/06/10 01:33:00;;;;;;;;;5.67;3.00;;;;;20.87;89.53;101819.06;5037833;28;46040;-67
2022/06/10 01:35:26;;;;;;;;;4.00;3.00;;;;;20.87;89.52;101824.41;5037430;28;45224;-68
2022/06/10 01:38:17;;;;;;;;;4.00;4.00;;;;;20.88;89.25;101822.66;5037313;28;45451;-68
2022/06/10 01:41:00;;;;;;;;;3.00;3.00;;;;;20.89;89.80;101825.31;5037479;28;45447;-67
2022/06/10 01:43:40;;;;;;;;;5.00;3.00;;;;;20.88;89.90;101819.97;5037441;28;46189;-68
2022/06/10 01:46:14;;;;;;;;;3.00;3.00;;;;;20.87;90.05;101820.84;5037378;28;45285;-67
2022/06/10 01:48:59;;;;;;;;;6.33;3.00;;;;;20.84;90.44;101824.50;5031925;28;45490;-67
2022/06/10 01:51:33;;;;;;;;;2.67;2.67;;;;;20.82;89.94;101820.91;5020175;28;45424;-68
2022/06/10 01:54:02;;;;;;;;;5.00;3.00;;;;;20.80;90.77;101825.44;5037369;28;46344;-67
2022/06/10 01:56:41;;;;;;;;;3.00;2.67;;;;;20.79;90.38;101825.47;5019814;28;45470;-68
2022/06/10 01:59:15;;;;;;;;;2.00;1.33;;;;;20.77;90.82;101827.28;5037717;28;45373;-68
2022/06/10 02:01:45;;;;;;;;;5.33;2.67;;;;;20.74;90.81;101821.97;5019324;28;45830;-68
2022/06/10 02:04:21;;;;;;;;;4.00;2.67;;;;;20.69;90.51;101818.47;5037461;28;45698;-67
2022/06/10 02:06:55;;;;;;;;;9.33;5.00;;;;;20.68;90.98;101825.63;5019198;28;45522;-67
2022/06/10 02:09:40;;;;;;;;;5.67;3.00;;;;;20.66;90.61;101825.63;5037474;28;45479;-68
2022/06/10 02:12:23;;;;;;;;;5.00;2.00;;;;;20.63;91.43;101827.50;5037478;28;45451;-67
2022/06/10 02:14:55;;;;;;;;;4.00;4.00;;;;;20.57;91.33;101828.47;5019354;28;46476;-67
2022/06/10 02:17:22;;;;;;;;;7.00;4.00;;;;;20.54;92.07;101836.56;5019160;28;45529;-67
2022/06/10 02:19:54;;;;;;;;;5.67;4.00;;;;;20.48;91.84;101833.97;5016789;28;45530;-67
2022/06/10 02:22:31;;;;;;;;;4.00;3.00;;;;;20.42;91.92;101825.97;5018634;28;45423;-67
2022/06/10 02:25:01;;;;;;;;;2.00;2.00;;;;;20.41;92.64;101832.25;5019908;28;46351;-67
2022/06/10 02:27:34;;;;;;;;;3.67;1.33;;;;;20.35;92.66;101830.53;5018853;28;45474;-67
2022/06/10 02:30:28;;;;;;;;;4.00;2.33;;;;;20.32;92.87;101827.00;5019215;28;45423;-68
2022/06/10 02:32:57;;;;;;;;;7.00;3.00;;;;;20.24;93.27;101824.44;5023861;28;45552;-67
2022/06/10 02:35:26;;;;;;;;;4.00;2.00;;;;;20.20;93.27;101833.41;5018862;28;46699;-67
2022/06/10 02:37:59;;;;;;;;;5.00;4.00;;;;;20.17;93.66;101829.88;5037219;28;45301;-67
2022/06/10 02:40:44;;;;;;;;;3.33;2.00;;;;;20.14;93.45;101837.06;5037011;28;45501;-67
2022/06/10 02:43:34;;;;;;;;;2.67;2.67;;;;;20.11;93.07;101836.22;5037069;28;45547;-67
2022/06/10 02:46:06;;;;;;;;;4.00;2.33;;;;;20.10;93.61;101837.13;5036557;28;46675;-67
2022/06/10 02:48:52;;;;;;;;;4.00;3.00;;;;;20.07;93.45;101835.34;5036451;28;45571;-68
2022/06/10 02:51:19;;;;;;;;;5.00;4.00;;;;;20.07;93.85;101835.34;5013789;28;45429;-67
2022/06/10 02:53:45;;;;;;;;;4.33;2.67;;;;;20.05;93.64;101837.19;5036472;28;45488;-68
2022/06/10 02:56:19;;;;;;;;;3.33;3.00;;;;;20.03;93.51;101836.31;5036867;28;46731;-67
2022/06/10 03:02:04;;;;;;;;;4.33;2.33;;;;;20.00;93.82;101839.03;5021636;28;45328;-68
2022/06/10 03:04:44;;;;;;;;;3.00;3.00;;;;;20.00;94.03;101838.13;5036931;28;45590;-67
2022/06/10 03:07:45;;;;;;;;;4.00;2.00;;;;;20.00;93.61;101838.13;5036406;28;46657;-67
2022/06/10 03:10:31;;;;;;;;;3.67;2.33;;;;;19.99;93.90;101839.94;5024982;28;46404;-67
2022/06/10 03:13:02;;;;;;;;;2.33;2.33;;;;;20.00;93.52;101838.13;5036449;28;45387;-68
2022/06/10 03:15:35;;;;;;;;;4.33;2.00;;;;;19.96;93.92;101844.44;5035696;28;45197;-68
2022/06/10 03:18:18;;;;;;;;;3.67;3.00;;;;;19.93;94.29;101847.16;5018082;28;47592;-68
2022/06/10 03:21:05;;;;;;;;;5.00;2.67;;;;;19.89;94.33;101851.66;5035676;28;45479;-68
2022/06/10 03:23:49;;;;;;;;;4.67;3.00;;;;;19.86;95.16;101865.97;5032210;28;45227;-68
2022/06/10 03:26:36;;;;;;;;;4.33;3.33;;;;;19.80;95.68;101868.72;5017847;28;45840;-67
2022/06/10 03:29:18;;;;;;;;;6.33;3.67;;;;;19.79;95.73;101868.75;5017981;28;45701;-67
2022/06/10 03:31:50;;;;;;;;;7.33;3.33;;;;;19.74;96.07;101854.50;5017779;28;45337;-67
2022/06/10 03:34:31;;;;;;;;;3.00;3.00;;;;;19.69;95.89;101859.03;5033846;28;45392;-67
2022/06/10 03:36:58;;;;;;;;;6.67;1.67;;;;;19.68;96.00;101859.94;5018164;28;45348;-67
2022/06/10 03:39:24;;;;;;;;;5.33;3.00;;;;;19.63;96.62;101857.31;5018049;28;47489;-67
2022/06/10 03:42:00;;;;;;;;;3.33;3.00;;;;;19.59;96.61;101864.47;5034977;28;45567;-68
2022/06/10 03:44:26;;;;;;;;;4.33;3.33;;;;;19.54;97.47;101860.03;5035928;28;45289;-67
2022/06/10 03:46:53;;;;;;;;;2.67;2.67;;;;;19.48;97.54;101852.06;5017681;28;45442;-67
2022/06/10 03:49:26;;;;;;;;;4.00;2.33;;;;;19.48;97.77;101865.44;5014696;28;47710;-67
2022/06/10 03:51:52;;;;;;;;;3.33;2.33;;;;;19.45;97.76;101860.13;5034569;28;45363;-67
2022/06/10 03:54:19;;;;;;;;;3.67;3.00;;;;;19.41;97.93;101867.31;5034494;28;61336;-67
2022/06/10 03:56:45;;;;;;;;;4.67;3.33;;;;;19.39;98.47;101866.44;5035517;28;45408;-67
2022/06/10 03:59:11;;;;;;;;;2.33;2.33;;;;;19.33;99.08;101862.03;5035735;28;46586;-67
2022/06/10 04:01:36;;;;;;;;;5.33;2.67;;;;;19.32;99.21;101859.34;5034816;28;62994;-68
2022/06/10 04:04:02;;;;;;;;;6.33;3.33;;;;;19.29;99.41;101862.94;5035669;28;45146;-67
2022/06/10 04:06:27;;;;;;;;;4.00;4.00;;;;;19.26;99.52;101860.28;5035417;28;60210;-67
2022/06/10 04:08:53;;;;;;;;;3.33;3.33;;;;;19.24;100.00;101864.78;5034754;28;61747;-67
2022/06/10 04:11:18;;;;;;;;;6.00;3.00;;;;;19.23;100.00;101870.13;5035834;28;45463;-68
2022/06/10 04:13:44;;;;;;;;;5.33;4.00;;;;;19.20;100.00;101868.38;5035503;28;45482;-67
2022/06/10 04:16:10;;;;;;;;;4.33;2.33;;;;;19.20;100.00;101875.53;5036022;28;45506;-67
2022/06/10 04:18:37;;;;;;;;;5.00;4.00;;;;;19.18;100.00;101878.22;5035368;28;47104;-68
2022/06/10 04:21:03;;;;;;;;;6.67;3.67;;;;;19.18;100.00;101883.56;5017844;28;45341;-68
2022/06/10 04:23:28;;;;;;;;;6.00;3.00;;;;;19.16;100.00;101885.34;5035353;28;45569;-67
2022/06/10 04:25:54;;;;;;;;;5.00;4.00;;;;;19.17;100.00;101886.25;5035859;28;45412;-67
2022/06/10 04:28:19;;;;;;;;;4.00;4.00;;;;;19.15;100.00;101888.06;5034054;28;66017;-67
2022/06/10 04:30:47;;;;;;;;;3.67;3.67;;;;;19.14;100.00;101884.50;5034758;28;60069;-67
2022/06/10 04:33:12;;;;;;;;;5.33;2.00;;;;;19.14;100.00;101881.81;5035325;28;45494;-67
2022/06/10 04:35:40;;;;;;;;;4.00;3.00;;;;;19.15;100.00;101885.38;5035365;28;45428;-67
2022/06/10 04:38:07;;;;;;;;;5.33;2.67;;;;;19.15;100.00;101888.06;5035545;28;46342;-67
2022/06/10 04:40:35;;;;;;;;;4.00;2.33;;;;;19.16;100.00;101893.38;5035352;28;45415;-67
2022/06/10 04:43:01;;;;;;;;;5.00;3.00;;;;;19.17;100.00;101888.91;5035159;28;45454;-67
2022/06/10 04:45:33;;;;;;;;;4.67;4.00;;;;;19.17;100.00;101892.47;5018720;28;45511;-67
2022/06/10 04:47:59;;;;;;;;;7.00;5.00;;;;;19.20;100.00;101895.16;5020435;28;45662;-67
2022/06/10 04:50:26;;;;;;;;;5.33;3.33;;;;;19.21;100.00;101888.88;5037732;28;45520;-67
2022/06/10 04:52:52;;;;;;;;;5.67;3.67;;;;;19.22;100.00;101889.78;5038359;28;45443;-67
2022/06/10 04:55:18;;;;;;;;;5.00;3.33;;;;;19.21;100.00;101888.00;5038715;28;45513;-67
2022/06/10 04:57:44;;;;;;;;;3.33;3.33;;;;;19.22;100.00;101896.00;5038397;28;45742;-67
2022/06/10 05:00:15;;;;;;;;;6.33;4.33;;;;;19.23;100.00;101892.47;5037564;28;66801;-68
2022/06/10 05:02:41;;;;;;;;;4.00;3.00;;;;;19.24;100.00;101894.22;5033986;28;45200;-67
2022/06/10 05:05:07;;;;;;;;;4.33;4.33;;;;;19.26;100.00;101899.56;5037971;28;57575;-68
2022/06/10 05:07:32;;;;;;;;;3.33;3.33;;;;;19.29;100.00;101887.06;5038146;28;46770;-67
2022/06/10 05:09:58;;;;;;;;;4.33;3.33;;;;;19.31;100.00;101893.28;5033799;28;45669;-68
2022/06/10 05:12:23;;;;;;;;;4.67;3.00;;;;;19.35;100.00;101897.72;5037453;28;61805;-67
2022/06/10 05:14:48;;;;;;;;;5.00;3.67;;;;;19.41;100.00;101894.09;5036939;28;45447;-67
2022/06/10 05:17:13;;;;;;;;;2.00;2.00;;;;;19.43;100.00;101894.06;5036444;28;59304;-67
2022/06/10 05:19:39;;;;;;;;;7.33;2.00;;;;;19.45;100.00;101889.59;5036368;28;61805;-67
2022/06/10 05:22:05;;;;;;;;;6.00;3.33;;;;;19.48;100.00;101886.88;5036216;28;52973;-67
2022/06/10 05:24:30;;;;;;;;;3.33;2.00;;;;;19.49;100.00;101900.25;5037470;28;45575;-67
2022/06/10 05:26:55;;;;;;;;;5.00;3.33;;;;;19.53;100.00;101895.75;5033724;28;61881;-67
2022/06/10 05:29:21;;;;;;;;;2.33;2.33;;;;;19.54;100.00;101897.53;5037047;28;45498;-67
2022/06/10 05:31:46;;;;;;;;;3.33;3.00;;;;;19.56;100.00;101901.09;5036237;28;45562;-67
2022/06/10 05:36:55;;;;;;;;;2.00;2.00;;;;;19.59;100.00;101906.44;5037744;28;45906;-67
2022/06/10 05:39:21;;;;;;;;;4.00;3.00;;;;;19.62;100.00;101899.28;5019837;28;45417;-67
2022/06/10 05:42:04;;;;;;;;;3.33;2.00;;;;;19.64;100.00;101904.63;5037079;28;60798;-67
2022/06/10 05:44:30;;;;;;;;;2.33;2.33;;;;;19.66;100.00;101907.31;5037973;28;45403;-67
2022/06/10 05:46:56;;;;;;;;;3.33;3.33;;;;;19.67;100.00;101906.41;5037513;28;46539;-67
2022/06/10 05:49:21;;;;;;;;;4.00;2.67;;;;;19.69;100.00;101913.50;5037082;28;45320;-68
2022/06/10 05:51:47;;;;;;;;;4.33;2.33;;;;;19.68;100.00;101917.09;5037861;28;45462;-67
2022/06/10 05:54:12;;;;;;;;;4.67;2.67;;;;;19.67;100.00;101919.81;5037035;28;45605;-67
2022/06/10 05:56:40;;;;;;;;;4.00;4.00;;;;;19.68;100.00;101925.13;5036037;28;47472;-67
2022/06/10 05:59:06;;;;;;;;;4.00;2.67;;;;;19.69;100.00;101929.59;5037660;28;45525;-67
2022/06/10 06:01:31;;;;;;;;;3.33;2.67;;;;;19.70;100.00;101930.47;5019408;28;45348;-67
2022/06/10 06:03:57;;;;;;;;;4.33;2.67;;;;;19.70;100.00;101931.34;5037261;28;45462;-67
2022/06/10 06:06:22;;;;;;;;;7.67;2.00;;;;;19.73;100.00;101933.13;5036660;28;46724;-67
2022/06/10 06:08:48;;;;;;;;;6.33;3.00;;;;;19.74;100.00;101941.16;5037232;28;45277;-67
2022/06/10 06:11:15;;;;;;;;;4.00;3.00;;;;;19.76;100.00;101933.09;5019492;28;45214;-67
2022/06/10 06:13:40;;;;;;;;;3.00;3.00;;;;;19.77;100.00;101934.88;5036969;28;45587;-67
2022/06/10 06:16:08;;;;;;;;;2.67;2.00;;;;;19.80;100.00;101943.78;5033496;28;46191;-67
2022/06/10 06:18:33;;;;;;;;;3.00;2.00;;;;;19.83;100.00;101948.22;5017473;28;45440;-67
2022/06/10 06:20:58;;;;;;;;;3.00;3.00;;;;;19.83;100.00;101940.19;5037370;28;58334;-67
2022/06/10 06:23:23;;;;;;;;;4.33;2.00;;;;;19.85;100.00;101952.66;5033537;28;57602;-67
2022/06/10 06:25:49;;;;;;;;;2.00;2.00;;;;;19.86;100.00;101945.50;5034014;28;65257;-68
2022/06/10 06:28:14;;;;;;;;;4.00;2.67;;;;;19.88;100.00;101954.44;5029503;28;61951;-68
2022/06/10 06:30:40;;;;;;;;;4.33;3.00;;;;;19.87;100.00;101945.50;5034324;28;48840;-68
2022/06/10 06:33:07;;;;;;;;;4.00;2.00;;;;;19.89;100.00;101954.41;5034883;28;45538;-68
2022/06/10 06:35:35;;;;;;;;;3.00;2.00;;;;;19.86;100.00;101945.50;5032842;28;47473;-67
2022/06/10 06:38:01;;;;;;;;;2.67;2.00;;;;;19.82;100.00;101947.34;5034335;28;46584;-70
2022/06/10 06:40:27;;;;;;;;;2.00;2.00;;;;;19.78;100.00;101945.59;5034265;28;45635;-71
2022/06/10 06:42:52;;;;;;;;;2.67;2.67;;;;;19.76;100.00;101942.03;5041783;28;45551;-69
2022/06/10 06:45:19;;;;;;;;;6.33;3.67;;;;;19.73;100.00;101947.41;5019532;28;46183;-70
2022/06/10 06:47:44;;;;;;;;;6.00;1.00;;;;;19.72;100.00;101953.69;5033194;28;45515;-70
2022/06/10 06:50:14;;;;;;;;;5.67;2.67;;;;;19.71;100.00;101945.63;5017002;28;45479;-70
2022/06/10 06:52:41;;;;;;;;;3.67;1.00;;;;;19.68;100.00;101946.56;5041314;28;45424;-71
2022/06/10 06:55:07;;;;;;;;;5.33;2.33;;;;;19.69;100.00;101951.03;5038088;28;45389;-71
2022/06/10 06:57:32;;;;;;;;;1.33;1.33;;;;;19.72;100.00;101952.81;5038984;28;47272;-71
2022/06/10 07:00:05;;;;;;;;;3.67;2.00;;;;;19.73;100.00;101946.53;5036254;28;45363;-71
2022/06/10 07:02:31;;;;;;;;;3.67;3.67;;;;;19.75;100.00;101958.13;5039971;28;45456;-70
2022/06/10 07:04:56;;;;;;;;;0.00;0.00;;;;;19.75;100.00;101955.44;5028110;28;47765;-69
2022/06/10 07:07:23;;;;;;;;;2.67;2.67;;;;;19.73;100.00;101950.09;5013697;28;62818;-69
2022/06/10 07:09:48;;;;;;;;;6.00;3.33;;;;;19.73;100.00;101946.53;5034893;28;57739;-69
2022/06/10 07:12:13;;;;;;;;;3.33;2.33;;;;;19.75;100.00;101950.06;5043639;28;62133;-70
2022/06/10 07:14:39;;;;;;;;;6.00;3.00;;;;;19.76;100.00;101946.50;5029954;28;61816;-71
2022/06/10 07:17:05;;;;;;;;;6.67;4.00;;;;;19.79;100.00;101942.00;5027148;28;62246;-69
2022/06/10 07:19:30;;;;;;;;;2.00;2.00;;;;;19.82;100.00;101947.34;5012969;28;45755;-72
2022/06/10 07:21:55;;;;;;;;;1.67;1.67;;;;;19.86;100.00;101946.38;5029016;28;45810;-71
2022/06/10 07:24:22;;;;;;;;;4.67;2.00;;;;;19.87;100.00;101940.16;5027433;28;45984;-70
2022/06/10 07:26:47;;;;;;;;;3.67;2.33;;;;;19.91;100.00;101948.16;5014339;28;62570;-71
2022/06/10 07:29:13;;;;;;;;;2.67;2.67;;;;;19.93;100.00;101949.03;5030548;28;45692;-70
2022/06/10 07:31:41;;;;;;;;;5.00;3.00;;;;;19.99;100.00;101957.00;5036232;28;45509;-70
2022/06/10 07:34:07;;;;;;;;;4.67;3.00;;;;;20.05;100.00;101943.53;5020936;28;46843;-70
2022/06/10 07:36:32;;;;;;;;;0.67;0.00;;;;;20.14;100.00;101944.34;5031442;28;46609;-70
2022/06/10 07:38:58;;;;;;;;;4.00;2.00;;;;;20.24;100.00;101954.94;5033112;28;46030;-71
2022/06/10 07:44:07;;;;;;;;;4.33;3.00;;;;;20.44;100.00;101963.66;5031028;28;45591;-69
2022/06/10 07:46:35;;;;;;;;;6.67;3.00;;;;;20.53;100.00;101954.66;5031619;28;46376;-71
2022/06/10 07:49:01;;;;;;;;;1.67;1.67;;;;;20.62;100.00;101962.59;5016786;28;45672;-71
2022/06/10 07:51:27;;;;;;;;;2.67;2.00;;;;;20.67;100.00;101974.16;5030032;28;45841;-72
2022/06/10 07:53:52;;;;;;;;;4.67;1.00;;;;;20.76;100.00;101952.56;5010591;28;46339;-71
2022/06/10 07:57:04;;;;;;;;;3.67;2.33;;;;;20.88;100.00;101956.88;5015491;28;46231;-72
2022/06/10 07:59:30;;;;;;;;;5.00;2.00;;;;;21.00;100.00;101947.78;5027187;28;45571;-71
2022/06/10 08:01:56;;;;;;;;;2.00;2.00;;;;;21.13;100.00;101949.34;5015673;28;45529;-72
2022/06/10 08:04:21;;;;;;;;;1.67;1.67;;;;;21.21;100.00;101950.13;5025990;28;48653;-71
2022/06/10 08:06:47;;;;;;;;;5.33;2.00;;;;;21.28;100.00;101949.13;5031442;28;45486;-72
2022/06/10 08:09:14;;;;;;;;;5.00;2.00;;;;;21.33;100.00;101947.28;5010448;28;45514;-70
2022/06/10 08:11:39;;;;;;;;;3.67;2.00;;;;;21.40;100.00;101953.44;5034344;28;45498;-71
2022/06/10 08:14:06;;;;;;;;;4.00;2.00;;;;;21.44;100.00;101942.63;5029901;28;56897;-70
2022/06/10 08:16:32;;;;;;;;;2.33;1.67;;;;;21.47;100.00;101941.69;5033372;28;46673;-71
2022/06/10 08:18:57;;;;;;;;;4.00;2.00;;;;;21.49;100.00;101947.94;5033193;28;45613;-70
2022/06/10 08:24:07;;;;;;;;;5.33;1.00;;;;;21.49;98.31;101936.28;5018465;28;45834;-70
2022/06/10 08:26:33;;;;;;;;;4.00;2.00;;;;;21.49;98.13;101931.81;5038106;28;45455;-72
2022/06/10 08:29:00;;;;;;;;;2.00;1.00;;;;;21.48;96.51;101937.22;5037767;28;46585;-71
2022/06/10 08:31:26;;;;;;;;;2.00;0.00;;;;;21.48;96.75;101932.72;5016830;28;45676;-70
2022/06/10 08:33:52;;;;;;;;;1.33;1.00;;;;;21.43;93.77;101924.72;5033221;28;45550;-70
2022/06/10 08:36:18;;;;;;;;;2.67;1.00;;;;;21.42;93.97;101924.75;5037920;28;45684;-71
2022/06/10 08:38:43;;;;;;;;;2.67;1.67;;;;;21.43;94.36;101935.47;5030990;28;46273;-73
2022/06/10 08:41:26;;;;;;;;;1.00;1.00;;;;;21.50;94.40;101930.00;5036157;28;50361;-72
2022/06/10 08:44:11;;;;;;;;;2.00;1.00;;;;;21.53;93.39;101924.59;5031726;28;45587;-71
2022/06/10 08:46:59;;;;;;;;;0.00;0.00;;;;;21.53;92.77;101930.84;5017814;28;45860;-71
2022/06/10 08:49:36;;;;;;;;;1.00;1.00;;;;;21.54;92.02;101934.41;5030914;28;45526;-71
2022/06/10 08:52:16;;;;;;;;;1.00;1.00;;;;;21.56;93.72;101922.72;5014412;28;46488;-71
2022/06/10 08:54:54;;;;;;;;;2.67;1.00;;;;;21.57;93.35;101927.19;5034011;28;45609;-72
2022/06/10 08:57:28;;;;;;;;;3.00;1.33;;;;;21.59;94.12;101922.66;5035461;28;45424;-71
2022/06/10 08:59:55;;;;;;;;;2.00;1.00;;;;;21.65;94.94;101932.44;5018615;28;45632;-71
2022/06/10 09:02:26;;;;;;;;;1.33;1.00;;;;;21.67;92.37;101935.97;5017016;28;56205;-70
2022/06/10 09:05:00;;;;;;;;;0.67;0.33;;;;;21.70;90.56;101930.53;5036382;28;45675;-71
2022/06/10 09:07:38;;;;;;;;;1.00;1.00;;;;;21.73;90.93;101929.59;5018682;28;45880;-72
2022/06/10 09:10:05;;;;;;;;;0.00;0.00;;;;;21.75;91.67;101917.91;5036427;28;45491;-72
2022/06/10 09:12:44;;;;;;;;;1.00;1.00;;;;;21.83;91.38;101921.34;5018326;28;45503;-72
2022/06/10 09:15:11;;;;;;;;;3.67;1.00;;;;;21.92;91.80;101923.84;5035246;28;45982;-71
2022/06/10 09:17:41;;;;;;;;;3.67;1.00;;;;;22.03;91.68;101923.66;5036038;28;45427;-71
2022/06/10 09:20:14;;;;;;;;;1.33;1.00;;;;;22.14;90.75;101921.69;5019189;28;45581;-72
2022/06/10 09:22:54;;;;;;;;;3.00;1.33;;;;;22.20;91.22;101918.84;5035001;28;45563;-69
2022/06/10 09:25:31;;;;;;;;;3.00;2.00;;;;;22.28;90.96;101913.34;5036954;28;46748;-71
2022/06/10 09:27:58;;;;;;;;;3.00;1.67;;;;;22.39;90.94;101907.75;5156346;22;47256;-71
2022/06/10 09:30:32;;;;;;;;;1.00;1.00;;;;;22.44;90.85;101912.09;5031665;28;45568;-73
2022/06/10 09:33:05;;;;;;;;;3.00;2.00;;;;;22.45;89.55;101913.88;5025638;28;45601;-73
2022/06/10 09:35:53;;;;;;;;;2.00;0.67;;;;;22.46;90.83;101922.81;5024831;28;47010;-72
2022/06/10 09:38:44;;;;;;;;;0.00;0.00;;;;;22.48;90.89;101923.69;5017918;28;45589;-71
2022/06/10 09:41:33;;;;;;;;;1.00;1.00;;;;;22.52;91.77;101933.47;5022901;28;45588;-72
2022/06/10 09:44:29;;;;;;;;;3.00;1.00;;;;;22.53;91.05;101926.28;5027318;28;46106;-73
2022/06/10 09:47:19;;;;;;;;;1.00;1.00;;;;;22.56;90.40;101926.22;5032175;28;46706;-74
2022/06/10 09:50:00;;;;;;;;;4.67;1.67;;;;;22.57;91.55;101931.56;5027807;28;46272;-71
2022/06/10 09:52:43;;;;;;;;;2.33;1.33;;;;;22.61;91.11;101921.63;5018036;28;45482;-73
2022/06/10 09:55:27;;;;;;;;;4.67;3.00;;;;;22.62;91.14;101921.59;5028310;28;45469;-72
2022/06/10 09:58:04;;;;;;;;;4.67;1.33;;;;;22.64;91.23;101927.84;5027152;28;46860;-72
2022/06/10 10:00:38;;;;;;;;;3.00;1.33;;;;;22.69;91.24;101925.03;5029028;28;45335;-71
2022/06/10 10:03:22;;;;;;;;;3.00;2.00;;;;;22.78;91.00;101930.22;5024470;28;45334;-72
2022/06/10 10:05:47;;;;;;;;;2.00;1.00;;;;;22.87;90.01;101923.75;5026701;28;47756;-72
2022/06/10 10:08:17;;;;;;;;;3.00;1.00;;;;;22.91;90.09;101931.75;5023409;28;45335;-71
2022/06/10 10:10:53;;;;;;;;;1.00;1.00;;;;;22.89;86.78;101938.97;5022798;28;45633;-73
2022/06/10 10:13:43;;;;;;;;;2.67;1.00;;;;;22.90;87.49;101939.84;5026664;28;45473;-72
2022/06/10 10:16:32;;;;;;;;;1.00;1.00;;;;;22.87;88.03;101939.91;5034445;28;45470;-73
2022/06/10 10:19:03;;;;;;;;;2.33;2.33;;;;;22.86;86.96;101939.03;5028336;28;45786;-72
2022/06/10 10:21:41;;;;;;;;;2.67;2.00;;;;;22.92;87.67;101936.22;5027797;28;45517;-72
2022/06/10 10:24:15;;;;;;;;;4.00;3.00;;;;;23.05;88.45;101928.72;5013772;28;46671;-71
2022/06/10 10:26:42;;;;;;;;;1.33;1.33;;;;;23.11;88.43;101931.28;5034717;28;45562;-72
2022/06/10 10:29:14;;;;;;;;;2.67;1.67;;;;;23.15;88.12;101929.41;5031435;28;45715;-72
2022/06/10 10:31:46;;;;;;;;;2.00;2.00;;;;;23.13;87.83;101921.38;5023225;28;45622;-74
2022/06/10 10:34:19;;;;;;;;;2.00;0.00;;;;;23.09;88.45;101924.16;5021897;28;45601;-71
2022/06/10 10:37:07;;;;;;;;;3.00;2.00;;;;;23.17;88.83;101922.16;5032327;28;45648;-70
2022/06/10 10:39:34;;;;;;;;;4.33;2.67;;;;;23.31;88.09;101930.81;5017061;28;47047;-73
2022/06/10 10:42:02;;;;;;;;;5.00;2.33;;;;;23.40;87.75;101922.50;5018141;28;45707;-72
2022/06/10 10:44:44;;;;;;;;;2.00;2.00;;;;;23.45;87.47;101917.00;5022933;28;45595;-73
2022/06/10 10:47:10;;;;;;;;;1.00;1.00;;;;;23.57;87.64;101923.88;5032766;28;45632;-72
2022/06/10 10:49:46;;;;;;;;;2.00;2.00;;;;;23.72;87.19;101926.22;5023490;28;45414;-74
2022/06/10 10:52:29;;;;;;;;;2.33;2.00;;;;;23.86;85.67;101924.03;5041855;28;45442;-74
2022/06/10 10:54:57;;;;;;;;;1.00;1.00;;;;;23.95;87.15;101918.38;5036271;28;45394;-71
2022/06/10 10:58:04;;;;;;;;;6.00;2.33;;;;;24.04;84.15;101925.34;5031559;28;45539;-72
2022/06/10 11:00:39;;;;;;;;;4.33;1.00;;;;;24.02;84.85;101913.69;5022882;28;47262;-70
2022/06/10 11:03:05;;;;;;;;;2.67;2.00;;;;;23.99;84.25;101913.81;5022856;28;45717;-75
2022/06/10 11:05:35;;;;;;;;;1.67;1.67;;;;;23.97;84.34;101921.03;5021881;28;45569;-72
2022/06/10 11:08:27;;;;;;;;;5.00;2.00;;;;;23.93;84.46;101920.25;5023132;28;45353;-74
2022/06/10 11:10:56;;;;;;;;;3.00;2.67;;;;;23.95;84.00;101921.09;5022505;28;45657;-73
2022/06/10 11:13:30;;;;;;;;;1.67;1.67;;;;;24.09;84.25;101926.13;5024315;28;45531;-73
2022/06/10 11:16:26;;;;;;;;;3.00;1.00;;;;;24.23;84.81;101923.00;5035444;28;46077;-72
2022/06/10 11:18:52;;;;;;;;;4.67;2.00;;;;;24.39;84.75;101928.88;5019547;28;45593;-72
2022/06/10 11:21:21;;;;;;;;;2.00;2.00;;;;;24.49;84.49;101919.59;5024750;28;46507;-72
2022/06/10 11:23:52;;;;;;;;;6.00;3.00;;;;;24.54;82.73;101915.81;5022626;28;45470;-71
2022/06/10 11:26:20;;;;;;;;;3.67;3.00;;;;;24.66;82.32;101921.78;5027782;28;45514;-71
2022/06/10 11:28:46;;;;;;;;;10.00;7.33;;;;;24.74;82.31;101917.91;5023110;28;46284;-72
2022/06/10 11:31:40;;;;;;;;;2.00;2.00;;;;;24.71;83.17;101930.63;5031843;28;47011;-72
2022/06/10 11:34:15;;;;;;;;;35.33;18.33;;;;;24.71;82.24;101926.09;5024727;28;45533;-72
2022/06/10 11:36:47;;;;;;;;;16.00;6.00;;;;;24.77;81.88;101920.53;5026781;28;45803;-71
2022/06/10 11:39:22;;;;;;;;;11.00;4.00;;;;;24.88;81.61;101916.63;5023799;28;45494;-74
2022/06/10 11:42:15;;;;;;;;;2.00;2.00;;;;;24.86;79.74;101922.06;5021727;28;47447;-73
2022/06/10 11:44:51;;;;;;;;;6.67;2.00;;;;;24.92;80.20;101919.16;5022197;28;45711;-73
2022/06/10 11:47:29;;;;;;;;;2.00;2.00;;;;;24.92;79.56;101921.84;5034999;28;45366;-73
2022/06/10 11:49:59;;;;;;;;;3.00;3.00;;;;;24.98;80.04;101916.28;5024842;28;45855;-75
2022/06/10 11:52:33;;;;;;;;;3.00;2.00;;;;;25.15;80.25;101923.00;5022947;28;45557;-73
2022/06/10 11:55:11;;;;;;;;;2.00;2.00;;;;;25.45;79.71;101907.56;5026971;28;45626;-76
2022/06/10 12:00:41;;;;;;;;;5.67;2.67;;;;;25.93;79.58;101893.28;5028519;28;45453;-69